sensor_id;sensor_type;location;lat;lon;timestamp;pressure;altitude;pressure_sealevel;temperature
28305;BMP280;15569;42.652;23.040;2024-01-15T14:33:27;91697.50;;;6.33
28305;BMP280;15569;42.652;23.040;2024-01-15T14:35:53;91702.56;;;6.41
28305;BMP280;15569;42.652;23.040;2024-01-15T14:38:18;91686.91;;;6.37
28305;BMP280;15569;42.652;23.040;2024-01-15T14:40:44;91681.13;;;6.29
28305;BMP280;15569;42.652;23.040;2024-01-15T14:43:10;91688.19;;;6.36
28305;BMP280;15569;42.652;23.040;2024-01-15T14:45:35;91683.03;;;6.56
28305;BMP280;15569;42.652;23.040;2024-01-15T14:48:00;91691.94;;;6.45
28305;BMP280;15569;42.652;23.040;2024-01-15T14:50:26;91688.50;;;6.58
28305;BMP280;15569;42.652;23.040;2024-01-15T14:52:51;91685.31;;;6.61
28305;BMP280;15569;42.652;23.040;2024-01-15T14:55:17;91671.03;;;6.59
28305;BMP280;15569;42.652;23.040;2024-01-15T14:57:42;91680.97;;;6.70
28305;BMP280;15569;42.652;23.040;2024-01-15T15:00:08;91691.84;;;6.56
28305;BMP280;15569;42.652;23.040;2024-01-15T15:02:35;91688.97;;;6.68
28305;BMP280;15569;42.652;23.040;2024-01-15T15:05:02;91694.84;;;6.78
28305;BMP280;15569;42.652;23.040;2024-01-15T15:07:27;91686.72;;;6.78
28305;BMP280;15569;42.652;23.040;2024-01-15T15:09:53;91680.91;;;6.54
28305;BMP280;15569;42.652;23.040;2024-01-15T15:12:18;91690.66;;;6.46
28305;BMP280;15569;42.652;23.040;2024-01-15T15:14:43;91680.59;;;6.33
28305;BMP280;15569;42.652;23.040;2024-01-15T15:17:09;91688.06;;;6.48
28305;BMP280;15569;42.652;23.040;2024-01-15T15:19:35;91684.47;;;6.43
28305;BMP280;15569;42.652;23.040;2024-01-15T15:22:01;91679.63;;;6.55
28305;BMP280;15569;42.652;23.040;2024-01-15T15:24:26;91676.25;;;6.70
28305;BMP280;15569;42.652;23.040;2024-01-15T15:26:52;91678.59;;;6.33
28305;BMP280;15569;42.652;23.040;2024-01-15T15:29:17;91687.19;;;6.30
28305;BMP280;15569;42.652;23.040;2024-01-15T15:31:44;91682.38;;;6.42
28305;BMP280;15569;42.652;23.040;2024-01-15T15:34:09;91689.75;;;6.26
28305;BMP280;15569;42.652;23.040;2024-01-15T15:36:35;91690.03;;;6.18
28305;BMP280;15569;42.652;23.040;2024-01-15T15:39:00;91681.94;;;6.18
28305;BMP280;15569;42.652;23.040;2024-01-15T15:41:26;91689.53;;;6.35
28305;BMP280;15569;42.652;23.040;2024-01-15T15:43:53;91689.88;;;6.00
28305;BMP280;15569;42.652;23.040;2024-01-15T15:46:18;91686.41;;;6.12
28305;BMP280;15569;42.652;23.040;2024-01-15T15:48:44;91688.03;;;6.19
28305;BMP280;15569;42.652;23.040;2024-01-15T15:51:09;91682.94;;;6.25
28305;BMP280;15569;42.652;23.040;2024-01-15T15:53:35;91671.78;;;6.17
28305;BMP280;15569;42.652;23.040;2024-01-15T15:56:00;91670.94;;;6.28
28305;BMP280;15569;42.652;23.040;2024-01-15T15:58:26;91668.59;;;6.36
28305;BMP280;15569;42.652;23.040;2024-01-15T16:00:51;91674.47;;;6.46
28305;BMP280;15569;42.652;23.040;2024-01-15T16:03:17;91660.22;;;6.30
28305;BMP280;15569;42.652;23.040;2024-01-15T16:05:42;91664.63;;;6.37
28305;BMP280;15569;42.652;23.040;2024-01-15T16:08:08;91672.13;;;6.54
28305;BMP280;15569;42.652;23.040;2024-01-15T16:10:33;91664.84;;;6.56
28305;BMP280;15569;42.652;23.040;2024-01-15T16:12:58;91661.44;;;6.56
28305;BMP280;15569;42.652;23.040;2024-01-15T16:15:24;91669.53;;;6.56
28305;BMP280;15569;42.652;23.040;2024-01-15T16:17:50;91670.44;;;6.76
28305;BMP280;15569;42.652;23.040;2024-01-15T16:20:16;91683.19;;;6.89
28305;BMP280;15569;42.652;23.040;2024-01-15T16:22:42;91676.84;;;6.69
28305;BMP280;15569;42.652;23.040;2024-01-15T16:25:08;91680.34;;;6.56
28305;BMP280;15569;42.652;23.040;2024-01-15T16:27:34;91673.50;;;6.39
28305;BMP280;15569;42.652;23.040;2024-01-15T16:29:59;91683.84;;;6.45
28305;BMP280;15569;42.652;23.040;2024-01-15T16:32:25;91669.81;;;6.33
28305;BMP280;15569;42.652;23.040;2024-01-15T16:34:50;91672.97;;;6.43
28305;BMP280;15569;42.652;23.040;2024-01-15T16:37:15;91675.25;;;6.48
28305;BMP280;15569;42.652;23.040;2024-01-15T16:39:41;91682.41;;;6.57
28305;BMP280;15569;42.652;23.040;2024-01-15T16:42:07;91684.22;;;6.82
28305;BMP280;15569;42.652;23.040;2024-01-15T16:44:34;91662.56;;;6.51
28305;BMP280;15569;42.652;23.040;2024-01-15T16:46:59;91679.47;;;6.67
28305;BMP280;15569;42.652;23.040;2024-01-15T16:49:26;91675.16;;;6.76
28305;BMP280;15569;42.652;23.040;2024-01-15T16:51:52;91665.03;;;6.76
28305;BMP280;15569;42.652;23.040;2024-01-15T16:54:17;91670.53;;;6.78
28305;BMP280;15569;42.652;23.040;2024-01-15T16:56:43;91659.38;;;6.70
28305;BMP280;15569;42.652;23.040;2024-01-15T16:59:10;91663.44;;;6.55
28305;BMP280;15569;42.652;23.040;2024-01-15T17:01:35;91652.31;;;6.63
28305;BMP280;15569;42.652;23.040;2024-01-15T17:04:01;91642.91;;;6.80
28305;BMP280;15569;42.652;23.040;2024-01-15T17:06:26;91651.19;;;6.68
28305;BMP280;15569;42.652;23.040;2024-01-15T17:08:52;91641.63;;;6.65
28305;BMP280;15569;42.652;23.040;2024-01-15T17:11:17;91641.34;;;6.59
28305;BMP280;15569;42.652;23.040;2024-01-15T17:13:42;91646.97;;;6.49
28305;BMP280;15569;42.652;23.040;2024-01-15T17:16:08;91649.97;;;6.42
28305;BMP280;15569;42.652;23.040;2024-01-15T17:18:33;91656.03;;;6.56
28305;BMP280;15569;42.652;23.040;2024-01-15T17:20:58;91654.50;;;6.82
28305;BMP280;15569;42.652;23.040;2024-01-15T17:23:24;91657.13;;;6.80
28305;BMP280;15569;42.652;23.040;2024-01-15T17:25:49;91651.63;;;6.94
28305;BMP280;15569;42.652;23.040;2024-01-15T17:28:15;91650.50;;;6.99
28305;BMP280;15569;42.652;23.040;2024-01-15T17:30:40;91653.22;;;7.14
28305;BMP280;15569;42.652;23.040;2024-01-15T17:33:05;91652.50;;;7.14
28305;BMP280;15569;42.652;23.040;2024-01-15T17:35:31;91662.78;;;7.17
28305;BMP280;15569;42.652;23.040;2024-01-15T17:37:56;91662.25;;;7.21
28305;BMP280;15569;42.652;23.040;2024-01-15T17:40:22;91652.31;;;7.25
28305;BMP280;15569;42.652;23.040;2024-01-15T17:42:48;91652.03;;;7.35
28305;BMP280;15569;42.652;23.040;2024-01-15T17:45:15;91654.28;;;7.40
28305;BMP280;15569;42.652;23.040;2024-01-15T17:47:43;91664.91;;;7.52
28305;BMP280;15569;42.652;23.040;2024-01-15T17:50:09;91645.16;;;7.32
28305;BMP280;15569;42.652;23.040;2024-01-15T17:52:34;91655.63;;;7.39
28305;BMP280;15569;42.652;23.040;2024-01-15T17:55:01;91658.47;;;7.43
28305;BMP280;15569;42.652;23.040;2024-01-15T17:57:30;91647.25;;;7.33
28305;BMP280;15569;42.652;23.040;2024-01-15T17:59:55;91640.78;;;7.40
28305;BMP280;15569;42.652;23.040;2024-01-15T18:02:21;91641.28;;;7.53
28305;BMP280;15569;42.652;23.040;2024-01-15T18:04:46;91639.31;;;7.37
28305;BMP280;15569;42.652;23.040;2024-01-15T18:07:12;91645.84;;;7.32
28305;BMP280;15569;42.652;23.040;2024-01-15T18:09:37;91653.53;;;7.38
28305;BMP280;15569;42.652;23.040;2024-01-15T18:12:03;91650.22;;;7.39
28305;BMP280;15569;42.652;23.040;2024-01-15T18:14:28;91634.84;;;7.28
28305;BMP280;15569;42.652;23.040;2024-01-15T18:16:54;91631.91;;;7.38
28305;BMP280;15569;42.652;23.040;2024-01-15T18:19:19;91632.97;;;7.31
28305;BMP280;15569;42.652;23.040;2024-01-15T18:21:45;91643.22;;;7.34
28305;BMP280;15569;42.652;23.040;2024-01-15T18:24:11;91641.34;;;7.21
28305;BMP280;15569;42.652;23.040;2024-01-15T18:26:37;91643.63;;;7.27
28305;BMP280;15569;42.652;23.040;2024-01-15T18:29:04;91640.97;;;7.29
28305;BMP280;15569;42.652;23.040;2024-01-15T18:31:30;91645.94;;;7.50
28305;BMP280;15569;42.652;23.040;2024-01-15T18:33:55;91637.88;;;7.52
28305;BMP280;15569;42.652;23.040;2024-01-15T18:36:21;91639.94;;;7.36
28305;BMP280;15569;42.652;23.040;2024-01-15T18:38:46;91634.22;;;7.12
28305;BMP280;15569;42.652;23.040;2024-01-15T18:41:21;91639.59;;;6.81
28305;BMP280;15569;42.652;23.040;2024-01-15T18:43:46;91635.88;;;6.88
28305;BMP280;15569;42.652;23.040;2024-01-15T18:46:12;91610.31;;;6.60
28305;BMP280;15569;42.652;23.040;2024-01-15T18:48:37;91637.50;;;6.80
28305;BMP280;15569;42.652;23.040;2024-01-15T18:51:03;91628.09;;;6.96
28305;BMP280;15569;42.652;23.040;2024-01-15T18:53:28;91630.03;;;6.78
28305;BMP280;15569;42.652;23.040;2024-01-15T18:55:54;91637.69;;;6.52
28305;BMP280;15569;42.652;23.040;2024-01-15T18:58:21;91641.09;;;6.24
28305;BMP280;15569;42.652;23.040;2024-01-15T19:00:46;91617.22;;;6.18
28305;BMP280;15569;42.652;23.040;2024-01-15T19:03:12;91634.84;;;6.35
28305;BMP280;15569;42.652;23.040;2024-01-15T19:05:38;91617.78;;;6.46
28305;BMP280;15569;42.652;23.040;2024-01-15T19:08:04;91619.59;;;6.26
28305;BMP280;15569;42.652;23.040;2024-01-15T19:10:29;91640.41;;;6.23
28305;BMP280;15569;42.652;23.040;2024-01-15T19:12:55;91636.47;;;6.42
28305;BMP280;15569;42.652;23.040;2024-01-15T19:15:20;91639.72;;;6.09
28305;BMP280;15569;42.652;23.040;2024-01-15T19:17:45;91641.69;;;6.22
28305;BMP280;15569;42.652;23.040;2024-01-15T19:20:14;91646.19;;;6.18
28305;BMP280;15569;42.652;23.040;2024-01-15T19:22:39;91641.25;;;6.28
28305;BMP280;15569;42.652;23.040;2024-01-15T19:25:05;91625.91;;;6.17
28305;BMP280;15569;42.652;23.040;2024-01-15T19:27:30;91634.09;;;6.19
28305;BMP280;15569;42.652;23.040;2024-01-15T19:29:55;91638.84;;;5.91
28305;BMP280;15569;42.652;23.040;2024-01-15T19:32:21;91638.47;;;5.96
28305;BMP280;15569;42.652;23.040;2024-01-15T19:34:47;91625.75;;;6.13
28305;BMP280;15569;42.652;23.040;2024-01-15T19:37:13;91623.84;;;6.31
28305;BMP280;15569;42.652;23.040;2024-01-15T19:39:38;91602.84;;;6.14
28305;BMP280;15569;42.652;23.040;2024-01-15T19:42:04;91597.31;;;6.41
28305;BMP280;15569;42.652;23.040;2024-01-15T19:44:30;91610.31;;;6.44
28305;BMP280;15569;42.652;23.040;2024-01-15T19:46:55;91613.28;;;6.66
28305;BMP280;15569;42.652;23.040;2024-01-15T19:49:21;91597.53;;;6.76
28305;BMP280;15569;42.652;23.040;2024-01-15T19:51:46;91603.97;;;6.85
28305;BMP280;15569;42.652;23.040;2024-01-15T19:54:12;91601.78;;;6.97
28305;BMP280;15569;42.652;23.040;2024-01-15T19:56:38;91594.31;;;6.80
28305;BMP280;15569;42.652;23.040;2024-01-15T19:59:03;91598.25;;;6.77
28305;BMP280;15569;42.652;23.040;2024-01-15T20:01:31;91589.78;;;6.84
28305;BMP280;15569;42.652;23.040;2024-01-15T20:03:56;91600.66;;;7.02
28305;BMP280;15569;42.652;23.040;2024-01-15T20:06:22;91606.09;;;6.86
28305;BMP280;15569;42.652;23.040;2024-01-15T20:08:48;91601.78;;;6.81
28305;BMP280;15569;42.652;23.040;2024-01-15T20:11:15;91601.03;;;6.79
28305;BMP280;15569;42.652;23.040;2024-01-15T20:13:41;91596.13;;;6.44
28305;BMP280;15569;42.652;23.040;2024-01-15T20:16:09;91606.34;;;6.77
28305;BMP280;15569;42.652;23.040;2024-01-15T20:18:35;91603.91;;;6.83
28305;BMP280;15569;42.652;23.040;2024-01-15T20:21:00;91591.53;;;6.78
28305;BMP280;15569;42.652;23.040;2024-01-15T20:23:26;91602.69;;;6.86
28305;BMP280;15569;42.652;23.040;2024-01-15T20:25:51;91593.50;;;7.08
28305;BMP280;15569;42.652;23.040;2024-01-15T20:28:17;91598.66;;;6.87
28305;BMP280;15569;42.652;23.040;2024-01-15T20:30:43;91595.88;;;7.00
28305;BMP280;15569;42.652;23.040;2024-01-15T20:33:09;91586.38;;;6.99
28305;BMP280;15569;42.652;23.040;2024-01-15T20:35:35;91587.16;;;6.70
28305;BMP280;15569;42.652;23.040;2024-01-15T20:38:00;91581.59;;;6.82
28305;BMP280;15569;42.652;23.040;2024-01-15T20:40:26;91581.59;;;6.51
28305;BMP280;15569;42.652;23.040;2024-01-15T20:42:52;91574.63;;;6.46
28305;BMP280;15569;42.652;23.040;2024-01-15T20:45:17;91573.41;;;6.49
28305;BMP280;15569;42.652;23.040;2024-01-15T20:47:42;91557.19;;;6.33
28305;BMP280;15569;42.652;23.040;2024-01-15T20:50:08;91570.09;;;6.35
28305;BMP280;15569;42.652;23.040;2024-01-15T20:52:33;91580.59;;;6.29
28305;BMP280;15569;42.652;23.040;2024-01-15T20:55:00;91564.13;;;6.07
28305;BMP280;15569;42.652;23.040;2024-01-15T20:57:26;91566.94;;;6.25
28305;BMP280;15569;42.652;23.040;2024-01-15T20:59:51;91561.38;;;6.21
28305;BMP280;15569;42.652;23.040;2024-01-15T21:02:16;91564.94;;;6.41
28305;BMP280;15569;42.652;23.040;2024-01-15T21:04:42;91555.09;;;6.32
28305;BMP280;15569;42.652;23.040;2024-01-15T21:07:07;91569.63;;;6.25
28305;BMP280;15569;42.652;23.040;2024-01-15T21:09:33;91561.16;;;6.17
28305;BMP280;15569;42.652;23.040;2024-01-15T21:11:58;91568.84;;;6.22
28305;BMP280;15569;42.652;23.040;2024-01-15T21:14:24;91562.16;;;6.23
28305;BMP280;15569;42.652;23.040;2024-01-15T21:16:49;91561.88;;;6.17
28305;BMP280;15569;42.652;23.040;2024-01-15T21:19:14;91552.22;;;6.12
28305;BMP280;15569;42.652;23.040;2024-01-15T21:21:40;91553.19;;;6.34
28305;BMP280;15569;42.652;23.040;2024-01-15T21:24:05;91556.88;;;5.96
28305;BMP280;15569;42.652;23.040;2024-01-15T21:26:31;91569.31;;;6.03
28305;BMP280;15569;42.652;23.040;2024-01-15T21:28:56;91570.94;;;6.24
28305;BMP280;15569;42.652;23.040;2024-01-15T21:31:22;91565.00;;;6.27
28305;BMP280;15569;42.652;23.040;2024-01-15T21:33:47;91580.19;;;6.34
28305;BMP280;15569;42.652;23.040;2024-01-15T21:36:12;91575.91;;;6.45
28305;BMP280;15569;42.652;23.040;2024-01-15T21:38:38;91566.97;;;6.56
28305;BMP280;15569;42.652;23.040;2024-01-15T21:41:04;91568.78;;;6.67
28305;BMP280;15569;42.652;23.040;2024-01-15T21:43:29;91566.94;;;6.87
28305;BMP280;15569;42.652;23.040;2024-01-15T21:45:54;91568.41;;;7.06
28305;BMP280;15569;42.652;23.040;2024-01-15T21:48:20;91573.44;;;7.13
28305;BMP280;15569;42.652;23.040;2024-01-15T21:50:45;91569.94;;;7.26
28305;BMP280;15569;42.652;23.040;2024-01-15T21:53:11;91571.09;;;7.21
28305;BMP280;15569;42.652;23.040;2024-01-15T21:55:39;91563.00;;;7.21
28305;BMP280;15569;42.652;23.040;2024-01-15T21:58:04;91566.47;;;7.24
28305;BMP280;15569;42.652;23.040;2024-01-15T22:00:30;91557.81;;;7.27
28305;BMP280;15569;42.652;23.040;2024-01-15T22:02:55;91552.91;;;7.39
28305;BMP280;15569;42.652;23.040;2024-01-15T22:05:20;91549.28;;;7.33
28305;BMP280;15569;42.652;23.040;2024-01-15T22:07:46;91550.53;;;7.48
28305;BMP280;15569;42.652;23.040;2024-01-15T22:10:11;91553.16;;;7.46
28305;BMP280;15569;42.652;23.040;2024-01-15T22:12:36;91555.38;;;7.33
28305;BMP280;15569;42.652;23.040;2024-01-15T22:15:02;91537.38;;;7.40
28305;BMP280;15569;42.652;23.040;2024-01-15T22:17:28;91542.44;;;7.14
28305;BMP280;15569;42.652;23.040;2024-01-15T22:19:54;91533.88;;;7.20
28305;BMP280;15569;42.652;23.040;2024-01-15T22:22:19;91541.25;;;7.19
28305;BMP280;15569;42.652;23.040;2024-01-15T22:24:45;91541.41;;;7.39
28305;BMP280;15569;42.652;23.040;2024-01-15T22:27:10;91525.19;;;7.39
28305;BMP280;15569;42.652;23.040;2024-01-15T22:29:37;91531.84;;;7.36
28305;BMP280;15569;42.652;23.040;2024-01-15T22:32:03;91537.09;;;7.16
28305;BMP280;15569;42.652;23.040;2024-01-15T22:34:28;91526.47;;;7.20
28305;BMP280;15569;42.652;23.040;2024-01-15T22:36:54;91538.63;;;7.37
28305;BMP280;15569;42.652;23.040;2024-01-15T22:39:19;91530.34;;;7.15
28305;BMP280;15569;42.652;23.040;2024-01-15T22:41:44;91535.19;;;7.19
28305;BMP280;15569;42.652;23.040;2024-01-15T22:44:10;91530.94;;;7.31
28305;BMP280;15569;42.652;23.040;2024-01-15T22:46:35;91524.81;;;7.47
28305;BMP280;15569;42.652;23.040;2024-01-15T22:49:01;91534.88;;;7.28
28305;BMP280;15569;42.652;23.040;2024-01-15T22:51:26;91527.75;;;7.19
28305;BMP280;15569;42.652;23.040;2024-01-15T22:53:51;91534.34;;;7.14
28305;BMP280;15569;42.652;23.040;2024-01-15T22:56:20;91537.16;;;6.85
28305;BMP280;15569;42.652;23.040;2024-01-15T22:58:46;91527.03;;;7.01
28305;BMP280;15569;42.652;23.040;2024-01-15T23:01:11;91516.63;;;7.11
28305;BMP280;15569;42.652;23.040;2024-01-15T23:03:36;91529.47;;;7.28
28305;BMP280;15569;42.652;23.040;2024-01-15T23:06:02;91515.06;;;7.39
28305;BMP280;15569;42.652;23.040;2024-01-15T23:08:27;91515.09;;;7.06
28305;BMP280;15569;42.652;23.040;2024-01-15T23:10:53;91514.59;;;6.94
28305;BMP280;15569;42.652;23.040;2024-01-15T23:13:18;91500.44;;;7.11
28305;BMP280;15569;42.652;23.040;2024-01-15T23:15:43;91504.53;;;7.30
28305;BMP280;15569;42.652;23.040;2024-01-15T23:18:09;91501.69;;;7.26
28305;BMP280;15569;42.652;23.040;2024-01-15T23:20:37;91498.91;;;7.24
28305;BMP280;15569;42.652;23.040;2024-01-15T23:23:03;91508.06;;;7.50
28305;BMP280;15569;42.652;23.040;2024-01-15T23:25:28;91498.28;;;7.43
28305;BMP280;15569;42.652;23.040;2024-01-15T23:27:54;91502.41;;;7.44
28305;BMP280;15569;42.652;23.040;2024-01-15T23:30:19;91509.75;;;7.59
28305;BMP280;15569;42.652;23.040;2024-01-15T23:32:45;91494.06;;;7.56
28305;BMP280;15569;42.652;23.040;2024-01-15T23:35:11;91512.84;;;7.69
28305;BMP280;15569;42.652;23.040;2024-01-15T23:37:39;91508.22;;;7.72
28305;BMP280;15569;42.652;23.040;2024-01-15T23:40:05;91509.59;;;7.90
28305;BMP280;15569;42.652;23.040;2024-01-15T23:42:30;91491.06;;;7.83
28305;BMP280;15569;42.652;23.040;2024-01-15T23:44:56;91507.72;;;7.95
28305;BMP280;15569;42.652;23.040;2024-01-15T23:47:21;91506.25;;;7.74
28305;BMP280;15569;42.652;23.040;2024-01-15T23:49:47;91505.56;;;7.74
28305;BMP280;15569;42.652;23.040;2024-01-15T23:52:12;91507.91;;;7.81
28305;BMP280;15569;42.652;23.040;2024-01-15T23:54:38;91509.75;;;7.59
28305;BMP280;15569;42.652;23.040;2024-01-15T23:57:04;91512.22;;;7.71
28305;BMP280;15569;42.652;23.040;2024-01-15T23:59:29;91514.63;;;7.45
